Time;durP1;ratioP1;P1;durP2;ratioP2;P2;SDS_P1;SDS_P2;PMS_P1;PMS_P2;Temp;Humidity;BMP_temperature;BMP_pressure;BME280_temperature;BME280_humidity;BME280_pressure;Samples;Min_cycle;Max_cycle;Signal;HPM_P1;HPM_P2
2022/12/13 00:00:07;;;;;;;21.38;13.93;;;;;;;-1.93;100.00;99114.25;5076513;28;20108;-82
2022/12/13 00:02:32;;;;;;;22.70;13.73;;;;;;;-1.85;100.00;99122.72;5076180;28;20374;-82
2022/12/13 00:04:57;;;;;;;18.55;13.82;;;;;;;-1.87;100.00;99129.50;5094622;28;20028;-82
2022/12/13 00:07:23;;;;;;;18.73;14.70;;;;;;;-1.88;100.00;99117.59;5093947;28;20038;-82
2022/12/13 00:09:48;;;;;;;21.80;14.93;;;;;;;-1.89;100.00;99128.69;5094302;28;20390;-82
2022/12/13 00:12:13;;;;;;;20.63;14.57;;;;;;;-1.87;100.00;99119.31;5093824;28;20071;-82
2022/12/13 00:14:39;;;;;;;20.73;14.32;;;;;;;-1.87;100.00;99123.56;5094600;28;20016;-82
2022/12/13 00:17:05;;;;;;;20.88;14.70;;;;;;;-1.89;100.00;99112.53;5075978;28;20312;-82
2022/12/13 00:19:30;;;;;;;20.33;14.88;;;;;;;-1.90;100.00;99113.34;5093934;28;20526;-82
2022/12/13 00:21:56;;;;;;;21.63;15.25;;;;;;;-1.89;100.00;99118.47;5093917;28;20023;-82
2022/12/13 00:24:21;;;;;;;17.58;13.20;;;;;;;-1.87;100.00;99126.13;5075547;28;20044;-82
2022/12/13 00:26:46;;;;;;;21.42;15.45;;;;;;;-1.94;100.00;99109.97;5093762;28;20024;-82
2022/12/13 00:29:12;;;;;;;22.05;14.98;;;;;;;-1.89;100.00;99118.47;5075831;28;20100;-82
2022/12/13 00:31:37;;;;;;;23.35;16.10;;;;;;;-1.91;100.00;99111.66;5075576;28;20024;-82
2022/12/13 00:34:03;;;;;;;19.67;14.30;;;;;;;-1.95;100.00;99113.38;5075616;28;20035;-82
2022/12/13 00:36:28;;;;;;;22.35;14.15;;;;;;;-1.91;100.00;99126.97;5075178;28;20101;-82
2022/12/13 00:38:59;;;;;;;20.60;13.77;;;;;;;-1.89;100.00;99121.03;5093617;28;20024;-82
2022/12/13 00:41:28;;;;;;;20.10;15.05;;;;;;;-1.89;100.00;99122.72;5092771;28;20030;-82
2022/12/13 00:43:54;;;;;;;21.65;15.60;;;;;;;-1.95;100.00;99110.84;5093588;28;20401;-82
2022/12/13 00:46:22;;;;;;;20.77;14.52;;;;;;;-1.86;100.00;99121.00;5093246;28;20024;-82
2022/12/13 00:48:50;;;;;;;19.02;13.90;;;;;;;-1.85;100.00;99119.31;5093555;28;20055;-82
2022/12/13 00:51:15;;;;;;;27.67;15.60;;;;;;;-1.86;100.00;99125.25;5075038;28;20040;-82
2022/12/13 00:53:41;;;;;;;21.73;15.40;;;;;;;-1.90;100.00;99113.34;5093653;28;20078;-82
2022/12/13 00:56:11;;;;;;;20.60;13.85;;;;;;;-1.96;100.00;99115.94;5093244;28;20102;-82
2022/12/13 00:58:37;;;;;;;20.05;13.68;;;;;;;-2.01;100.00;99114.28;5092852;28;20059;-82
2022/12/13 01:01:15;;;;;;;22.65;13.90;;;;;;;-1.89;100.00;99138.06;5075221;28;20060;-82
2022/12/13 01:03:41;;;;;;;18.20;12.82;;;;;;;-1.89;100.00;99130.41;5093402;28;20442;-82
2022/12/13 01:06:40;;;;;;;21.25;13.40;;;;;;;-1.93;100.00;99131.25;5093259;28;20067;-82
2022/12/13 01:09:13;;;;;;;17.75;12.70;;;;;;;-1.93;100.00;99136.38;5093181;28;20036;-82
2022/12/13 01:11:38;;;;;;;22.23;13.70;;;;;;;-2.01;100.00;99126.19;5074464;28;20016;-82
2022/12/13 01:14:03;;;;;;;19.88;13.23;;;;;;;-2.07;100.00;99116.84;5093274;28;20032;-82
2022/12/13 01:16:29;;;;;;;18.10;12.80;;;;;;;-2.07;100.00;99129.59;5074286;28;20103;-82
2022/12/13 01:18:56;;;;;;;21.15;13.85;;;;;;;-2.04;100.00;99137.25;5092702;28;20383;-82
2022/12/13 01:21:21;;;;;;;22.15;14.18;;;;;;;-2.09;100.00;99126.22;5074635;28;20058;-82
2022/12/13 01:23:46;;;;;;;17.08;12.70;;;;;;;-2.08;100.00;99130.44;5093005;28;20051;-82
2022/12/13 01:26:15;;;;;;;15.63;12.02;;;;;;;-2.10;100.00;99131.34;5074658;28;20077;-82
2022/12/13 01:28:41;;;;;;;16.45;11.73;;;;;;;-2.07;100.00;99132.16;5092542;28;20028;-82
2022/12/13 01:31:13;;;;;;;15.90;11.73;;;;;;;-2.09;100.00;99126.22;5092992;28;20031;-82
2022/12/13 01:33:39;;;;;;;18.75;13.07;;;;;;;-2.10;100.00;99113.47;5049395;28;20039;-82
2022/12/13 01:36:07;;;;;;;15.13;11.50;;;;;;;-2.07;100.00;99128.75;5050094;28;20041;-82
2022/12/13 01:38:34;;;;;;;16.67;11.65;;;;;;;-2.06;100.00;99130.47;5049613;28;20071;-82
2022/12/13 01:40:59;;;;;;;16.90;11.55;;;;;;;-2.06;100.00;99127.91;5049623;28;20082;-82
2022/12/13 01:43:47;;;;;;;17.27;12.43;;;;;;;-2.05;100.00;99127.06;5032889;28;20032;-82
2022/12/13 01:46:15;;;;;;;15.82;11.07;;;;;;;-2.13;100.00;99127.06;5049732;28;20096;-82
2022/12/13 01:48:46;;;;;;;15.95;11.52;;;;;;;-2.21;100.00;99113.50;5032764;28;20393;-82
2022/12/13 01:51:15;;;;;;;15.32;11.30;;;;;;;-2.21;100.00;99122.88;5049522;28;20178;-82
2022/12/13 01:53:44;;;;;;;17.45;11.55;;;;;;;-2.21;100.00;99125.41;5032607;28;20080;-82
2022/12/13 01:56:15;;;;;;;16.63;11.65;;;;;;;-2.24;100.00;99128.81;5049231;28;20028;-82
2022/12/13 01:58:41;;;;;;;17.10;12.18;;;;;;;-2.29;100.00;99133.94;5032350;28;20059;-82
2022/12/13 02:01:07;;;;;;;16.45;11.65;;;;;;;-2.42;100.00;99123.78;5049526;28;20480;-82
2022/12/13 02:03:33;;;;;;;14.70;11.00;;;;;;;-2.41;100.00;99133.97;5034434;28;20041;-82
2022/12/13 02:06:16;;;;;;;16.80;11.45;;;;;;;-2.54;100.00;99129.75;5092510;28;20115;-82
2022/12/13 02:08:43;;;;;;;15.77;10.52;;;;;;;-2.61;100.00;99128.94;5073745;28;20038;-82
2022/12/13 02:11:10;;;;;;;15.95;10.95;;;;;;;-2.65;100.00;99141.69;5092056;28;20024;-82
2022/12/13 02:13:36;;;;;;;18.10;11.65;;;;;;;-2.66;100.00;99145.91;5091987;28;20099;-82
2022/12/13 02:16:13;;;;;;;17.10;11.00;;;;;;;-2.76;100.00;99151.88;5092225;28;20020;-82
2022/12/13 02:19:02;;;;;;;15.35;10.30;;;;;;;-2.86;100.00;99148.50;5091819;28;20469;-81
2022/12/13 02:21:33;;;;;;;15.90;10.18;;;;;;;-2.91;100.00;99156.97;5092116;28;20024;-82
2022/12/13 02:24:14;;;;;;;16.10;11.60;;;;;;;-2.99;100.00;99149.38;5092013;28;20028;-81
2022/12/13 02:26:51;;;;;;;16.58;11.48;;;;;;;-3.07;100.00;99148.50;5091846;28;20247;-82
2022/12/13 02:29:29;;;;;;;15.13;10.60;;;;;;;-3.15;100.00;99162.94;5074061;28;20201;-82
2022/12/13 02:31:59;;;;;;;15.60;10.85;;;;;;;-3.22;100.00;99161.22;5091657;28;20099;-82
2022/12/13 02:34:40;;;;;;;;;;;;;;;-3.29;100.00;99156.16;5074125;28;20410;-82
2022/12/13 02:37:17;;;;;;;18.80;11.85;;;;;;;-3.36;100.00;99154.44;5091687;28;19940;-82
2022/12/13 02:40:11;;;;;;;16.25;11.52;;;;;;;-3.45;100.00;99156.97;5048511;28;20036;-82
2022/12/13 02:42:47;;;;;;;16.08;11.45;;;;;;;-3.55;100.00;99142.50;4970584;28;20050;-82
2022/12/13 02:45:19;;;;;;;16.10;11.18;;;;;;;-3.55;100.00;99157.78;4970456;28;20031;-82
2022/12/13 02:47:46;;;;;;;16.27;11.07;;;;;;;-3.60;100.00;99159.47;4970204;28;20031;-82
2022/12/13 02:50:13;;;;;;;16.13;11.45;;;;;;;-3.74;100.00;99149.25;4954282;28;20031;-82
2022/12/13 02:52:41;;;;;;;16.35;10.98;;;;;;;-3.73;100.00;99157.75;4970165;28;20460;-82
2022/12/13 02:55:11;;;;;;;15.35;10.95;;;;;;;-3.78;100.00;99157.72;4970387;28;20366;-82
2022/12/13 02:57:40;;;;;;;17.80;12.33;;;;;;;-3.88;100.00;99151.75;4969852;28;20077;-82
2022/12/13 03:00:18;;;;;;;17.67;12.15;;;;;;;-3.85;100.00;99159.41;4970270;28;20043;-82
2022/12/13 03:03:11;;;;;;;17.15;11.77;;;;;;;-3.96;100.00;99147.47;4954129;28;20027;-82
2022/12/13 03:09:07;;;;;;;14.18;11.15;;;;;;;-3.99;100.00;99158.50;4974132;28;20093;-82
2022/12/13 03:15:25;;;;;;;15.00;10.85;;;;;;;-4.12;100.00;99164.38;5012813;28;20032;-82
2022/12/13 03:17:58;;;;;;;17.48;12.13;;;;;;;-4.17;100.00;99161.81;5012848;28;20389;-82
2022/12/13 03:20:26;;;;;;;18.40;11.63;;;;;;;-4.22;100.00;99155.84;5071413;28;20032;-82
2022/12/13 03:22:52;;;;;;;14.75;10.82;;;;;;;-4.38;100.00;99139.69;5095169;28;20098;-82
2022/12/13 03:25:18;;;;;;;17.88;11.88;;;;;;;-4.41;100.00;99151.53;5095162;28;20024;-82
2022/12/13 03:27:43;;;;;;;16.30;11.60;;;;;;;-4.33;100.00;99165.13;5076764;28;20055;-82
2022/12/13 03:30:09;;;;;;;16.88;11.82;;;;;;;-4.35;100.00;99165.09;5076923;28;20054;-82
2022/12/13 03:32:35;;;;;;;16.73;11.57;;;;;;;-4.39;100.00;99160.84;5095196;28;20031;-82
2022/12/13 03:35:00;;;;;;;20.20;12.07;;;;;;;-4.42;100.00;99163.41;5095005;28;20371;-82
2022/12/13 03:37:25;;;;;;;21.15;13.32;;;;;;;-4.44;100.00;99156.59;5094487;28;20077;-82
2022/12/13 03:39:51;;;;;;;19.95;13.73;;;;;;;-4.49;100.00;99155.72;5094851;28;20038;-82
2022/12/13 03:42:16;;;;;;;26.35;15.80;;;;;;;-4.60;100.00;99146.31;5076588;28;20016;-82
2022/12/13 03:44:42;;;;;;;23.67;13.82;;;;;;;-4.54;100.00;99156.53;5076250;28;20459;-82
2022/12/13 03:47:08;;;;;;;22.65;14.00;;;;;;;-4.56;100.00;99155.66;5095191;28;20027;-82
2022/12/13 03:49:33;;;;;;;23.08;14.05;;;;;;;-4.68;100.00;99135.25;5094537;28;20048;-82
2022/12/13 03:51:58;;;;;;;22.17;13.65;;;;;;;-4.57;100.00;99159.06;5076546;28;20043;-82
2022/12/13 03:54:24;;;;;;;21.58;14.23;;;;;;;-4.56;100.00;99159.91;5076425;28;20075;-82
2022/12/13 03:56:49;;;;;;;23.40;14.75;;;;;;;-4.49;100.00;99161.66;5094261;28;20069;-82
2022/12/13 03:59:14;;;;;;;23.17;13.73;;;;;;;-4.38;100.00;99171.84;5075980;28;20024;-82
2022/12/13 04:01:40;;;;;;;22.15;14.00;;;;;;;-4.36;100.00;99154.94;5076274;28;20020;-82
2022/12/13 04:04:05;;;;;;;20.20;12.77;;;;;;;-4.21;100.00;99155.03;5076096;28;20082;-82
2022/12/13 04:06:30;;;;;;;20.25;12.40;;;;;;;-4.12;100.00;99149.13;5094516;28;20016;-82
2022/12/13 04:08:55;;;;;;;16.48;11.40;;;;;;;-4.00;100.00;99161.91;5076071;28;20027;-82
2022/12/13 04:14:04;;;;;;;17.52;11.30;;;;;;;-3.81;100.00;99156.00;5093305;28;20473;-82
2022/12/13 04:16:30;;;;;;;19.70;12.32;;;;;;;-3.75;100.00;99150.09;5093804;28;20024;-82
2022/12/13 04:18:55;;;;;;;16.88;12.18;;;;;;;-3.78;100.00;99138.22;5094025;28;20031;-82
2022/12/13 04:21:20;;;;;;;18.63;12.10;;;;;;;-3.64;100.00;99156.06;5075776;28;20404;-82
2022/12/13 04:23:46;;;;;;;17.70;11.88;;;;;;;-3.62;100.00;99149.28;5093590;28;20111;-82
2022/12/13 04:26:11;;;;;;;15.50;10.82;;;;;;;-3.56;100.00;99148.44;5093794;28;20023;-82
2022/12/13 04:28:36;;;;;;;16.95;11.70;;;;;;;-3.49;100.00;99151.88;5075245;28;20383;-82
2022/12/13 04:31:02;;;;;;;16.40;10.70;;;;;;;-3.42;100.00;99153.56;5093993;28;20048;-82
2022/12/13 04:33:27;;;;;;;16.55;11.50;;;;;;;-3.40;100.00;99151.88;5075738;28;20031;-82
2022/12/13 04:35:52;;;;;;;16.95;11.88;;;;;;;-3.39;100.00;99156.13;5093778;28;20028;-82
2022/12/13 04:38:18;;;;;;;16.55;10.70;;;;;;;-3.34;100.00;99156.97;5093733;28;20441;-82
2022/12/13 04:40:44;;;;;;;16.50;11.30;;;;;;;-3.32;100.00;99153.59;5075212;28;20531;-82
2022/12/13 04:43:09;;;;;;;14.90;10.50;;;;;;;-3.31;100.00;99144.25;5093802;28;20024;-83
2022/12/13 04:45:35;;;;;;;15.82;11.23;;;;;;;-3.34;100.00;99142.53;5093591;28;20020;-82
2022/12/13 04:48:00;;;;;;;16.45;11.77;;;;;;;-3.24;100.00;99155.28;5093403;28;20245;-82
2022/12/13 04:50:25;;;;;;;16.23;11.40;;;;;;;-3.20;100.00;99164.63;5093625;28;20028;-82
2022/12/13 04:52:51;;;;;;;16.70;11.23;;;;;;;-3.17;100.00;99160.38;5093192;28;20401;-82
2022/12/13 04:55:16;;;;;;;17.55;11.43;;;;;;;-3.15;100.00;99160.41;5075183;28;20480;-82
2022/12/13 04:57:41;;;;;;;17.17;11.73;;;;;;;-3.10;100.00;99162.09;5074800;28;20020;-82
2022/12/13 05:00:11;;;;;;;16.17;11.88;;;;;;;-3.09;100.00;99161.22;5093299;28;20016;-82
2022/12/13 05:02:37;;;;;;;19.02;11.55;;;;;;;-3.11;100.00;99160.41;5074796;28;20097;-82
2022/12/13 05:05:02;;;;;;;18.48;12.43;;;;;;;-3.17;100.00;99146.78;5074854;28;20078;-82
2022/12/13 05:07:28;;;;;;;18.05;12.40;;;;;;;-3.09;100.00;99156.13;5074653;28;20020;-83
2022/12/13 05:09:54;;;;;;;15.02;11.13;;;;;;;-3.11;100.00;99159.56;5092910;28;20023;-83
2022/12/13 05:12:22;;;;;;;17.40;12.05;;;;;;;-3.06;100.00;99156.16;5074690;28;20035;-83
2022/12/13 05:14:47;;;;;;;16.77;11.38;;;;;;;-3.05;100.00;99160.38;5092930;28;20102;-83
2022/12/13 05:17:12;;;;;;;18.30;11.77;;;;;;;-3.05;100.00;99157.84;5093007;28;20188;-83
2022/12/13 05:19:38;;;;;;;16.58;12.32;;;;;;;-3.16;100.00;99136.63;5092721;28;20020;-82
2022/12/13 05:22:03;;;;;;;17.33;12.18;;;;;;;-3.05;100.00;99162.94;5092919;28;20390;-82
2022/12/13 05:24:30;;;;;;;17.58;12.52;;;;;;;-3.07;100.00;99158.69;5074537;28;20073;-82
2022/12/13 05:26:56;;;;;;;19.50;13.45;;;;;;;-3.13;100.00;99154.44;5092158;28;20067;-82
2022/12/13 05:29:22;;;;;;;19.25;12.80;;;;;;;-3.09;100.00;99158.69;5092908;28;20055;-83
2022/12/13 05:31:47;;;;;;;20.42;13.45;;;;;;;-3.06;100.00;99161.25;5074342;28;20107;-82
2022/12/13 05:34:12;;;;;;;19.98;12.15;;;;;;;-3.03;100.00;99155.31;5074520;28;20031;-82
2022/12/13 05:36:38;;;;;;;19.25;11.93;;;;;;;-3.09;100.00;99151.03;5074236;28;20023;-83
2022/12/13 05:39:03;;;;;;;18.17;12.00;;;;;;;-3.03;100.00;99157.84;5074209;28;20447;-82
2022/12/13 05:41:32;;;;;;;19.60;13.45;;;;;;;-3.03;100.00;99153.59;5092734;28;20027;-83
2022/12/13 05:43:58;;;;;;;19.02;13.20;;;;;;;-2.99;100.00;99154.47;5074206;28;20077;-82
2022/12/13 05:46:23;;;;;;;18.08;11.82;;;;;;;-2.94;100.00;99164.66;5092850;28;20020;-83
2022/12/13 05:48:48;;;;;;;15.73;11.90;;;;;;;-2.94;100.00;99168.03;5092072;28;20035;-83
2022/12/13 05:51:13;;;;;;;19.23;11.93;;;;;;;-2.93;100.00;99166.34;5092321;28;20108;-82
2022/12/13 05:53:40;;;;;;;18.90;12.50;;;;;;;-2.90;100.00;99171.44;5092200;28;20035;-83
2022/12/13 05:56:05;;;;;;;18.20;12.48;;;;;;;-2.92;100.00;99162.94;5092294;28;20031;-83
2022/12/13 05:58:30;;;;;;;16.65;12.13;;;;;;;-2.92;100.00;99161.22;5092534;28;20024;-83
2022/12/13 06:01:04;;;;;;;20.23;13.10;;;;;;;-2.91;100.00;99155.28;5074094;28;20016;-83
2022/12/13 06:03:30;;;;;;;18.23;12.30;;;;;;;-2.88;100.00;99170.56;5074063;28;20043;-83
2022/12/13 06:05:59;;;;;;;15.45;10.82;;;;;;;-2.91;100.00;99157.81;5092064;28;20019;-83
2022/12/13 06:08:24;;;;;;;16.52;11.20;;;;;;;-2.95;100.00;99158.72;5092108;28;20024;-83
2022/12/13 06:10:56;;;;;;;16.67;12.27;;;;;;;-2.95;100.00;99163.81;5092297;28;20016;-83
2022/12/13 06:13:22;;;;;;;18.95;12.13;;;;;;;-2.91;100.00;99168.03;5092202;28;20035;-83
2022/12/13 06:15:48;;;;;;;17.42;12.25;;;;;;;-2.95;100.00;99160.38;5073818;28;20375;-83
2022/12/13 06:18:13;;;;;;;16.95;11.65;;;;;;;-2.97;100.00;99159.53;5092095;28;20016;-83
2022/12/13 06:20:38;;;;;;;17.52;12.00;;;;;;;-2.90;100.00;99167.19;5092231;28;20103;-83
2022/12/13 06:23:03;;;;;;;15.27;11.40;;;;;;;-2.89;100.00;99161.25;5091923;28;20020;-83
2022/12/13 06:25:29;;;;;;;18.10;12.13;;;;;;;-2.87;100.00;99163.78;5073924;28;20077;-82
2022/12/13 06:27:54;;;;;;;15.65;12.00;;;;;;;-2.86;100.00;99168.06;5092059;28;20038;-83
2022/12/13 06:30:19;;;;;;;17.38;12.23;;;;;;;-2.89;100.00;99157.84;5092010;28;20024;-83
2022/12/13 06:32:49;;;;;;;16.73;12.60;;;;;;;-2.83;100.00;99166.31;5073614;28;20111;-83
2022/12/13 06:35:15;;;;;;;15.43;12.05;;;;;;;-2.87;100.00;99169.72;5091943;28;20048;-83
2022/12/13 06:37:40;;;;;;;15.93;11.73;;;;;;;-2.84;100.00;99176.53;5073886;28;20070;-83
2022/12/13 06:40:06;;;;;;;16.20;11.20;;;;;;;-2.85;100.00;99182.47;5077744;28;20473;-83
2022/12/13 06:42:31;;;;;;;17.40;11.38;;;;;;;-2.86;100.00;99180.78;5077911;28;20050;-83
2022/12/13 06:44:57;;;;;;;15.70;11.75;;;;;;;-2.95;100.00;99165.47;5095781;28;20039;-83
2022/12/13 06:47:26;;;;;;;17.05;12.02;;;;;;;-2.91;100.00;99174.81;5095773;28;20028;-83
2022/12/13 06:49:51;;;;;;;15.30;11.13;;;;;;;-2.88;100.00;99179.91;5095557;28;20024;-82
2022/12/13 06:52:17;;;;;;;16.98;11.48;;;;;;;-2.92;100.00;99176.53;5095611;28;20024;-83
2022/12/13 06:54:43;;;;;;;17.75;12.90;;;;;;;-2.92;100.00;99188.41;5095698;28;20016;-83
2022/12/13 06:57:10;;;;;;;20.27;13.02;;;;;;;-3.02;100.00;99195.22;5077535;28;20114;-82
2022/12/13 06:59:35;;;;;;;20.05;13.00;;;;;;;-3.22;100.00;99184.16;5077542;28;20069;-83
2022/12/13 07:02:00;;;;;;;18.90;13.73;;;;;;;-3.35;100.00;99190.94;5095489;28;20024;-82
2022/12/13 07:04:26;;;;;;;16.65;12.00;;;;;;;-3.42;100.00;99184.09;5095345;28;20128;-83
2022/12/13 07:06:51;;;;;;;20.02;13.82;;;;;;;-3.51;100.00;99190.03;5095136;28;20127;-83
2022/12/13 07:09:16;;;;;;;19.58;13.55;;;;;;;-3.55;100.00;99207.00;5095670;28;20070;-83
2022/12/13 07:11:42;;;;;;;19.95;14.15;;;;;;;-3.59;100.00;99199.34;5077162;28;20015;-83
2022/12/13 07:14:08;;;;;;;18.98;13.75;;;;;;;-3.58;100.00;99201.03;5077478;28;20123;-83
2022/12/13 07:16:33;;;;;;;17.25;12.73;;;;;;;-3.64;100.00;99185.75;5095378;28;20103;-82
2022/12/13 07:19:00;;;;;;;18.15;13.18;;;;;;;-3.63;100.00;99187.44;5095027;28;20020;-83
2022/12/13 07:21:26;;;;;;;20.52;13.43;;;;;;;-3.62;100.00;99190.03;5052184;28;20033;-83
2022/12/13 07:23:51;;;;;;;21.23;13.63;;;;;;;-3.56;100.00;99200.22;5035321;28;20033;-83
2022/12/13 07:26:18;;;;;;;23.83;14.70;;;;;;;-3.55;100.00;99209.53;5052322;28;20038;-83
2022/12/13 07:28:44;;;;;;;19.10;14.13;;;;;;;-3.57;100.00;99210.41;5035272;28;20102;-82
2022/12/13 07:31:10;;;;;;;18.60;13.80;;;;;;;-3.61;100.00;99198.50;5052570;28;20460;-82
2022/12/13 07:33:36;;;;;;;20.83;13.98;;;;;;;-3.69;100.00;99193.38;5035380;28;20533;-83
2022/12/13 07:36:08;;;;;;;22.40;14.48;;;;;;;-3.53;100.00;99207.84;5051761;28;20029;-82
2022/12/13 07:38:33;;;;;;;24.65;14.60;;;;;;;-3.52;100.00;99221.44;5052062;28;20025;-83
2022/12/13 07:40:59;;;;;;;21.52;14.13;;;;;;;-3.54;100.00;99218.00;5051636;28;20037;-83
2022/12/13 07:43:24;;;;;;;21.45;13.85;;;;;;;-3.61;100.00;99204.44;5051974;28;20029;-83
2022/12/13 07:45:51;;;;;;;22.30;14.40;;;;;;;-3.60;100.00;99206.13;5051711;28;20048;-83
2022/12/13 07:48:16;;;;;;;19.75;14.00;;;;;;;-3.57;100.00;99216.34;5051703;28;20029;-83
2022/12/13 07:50:42;;;;;;;21.73;14.85;;;;;;;-3.59;100.00;99202.72;5051540;28;20028;-83
2022/12/13 07:53:07;;;;;;;22.25;15.50;;;;;;;-3.53;100.00;99215.50;5085714;28;20554;-83
2022/12/13 07:55:34;;;;;;;24.27;15.60;;;;;;;-3.53;100.00;99212.94;5094456;28;20024;-83
2022/12/13 07:58:07;;;;;;;28.70;17.73;;;;;;;-3.48;100.00;99222.28;5076022;28;20043;-83
2022/12/13 08:00:33;;;;;;;41.33;20.90;;;;;;;-3.52;100.00;99213.78;5094414;28;20207;-83
2022/12/13 08:03:00;;;;;;;28.10;17.63;;;;;;;-3.55;100.00;99222.25;5075806;28;20316;-83
2022/12/13 08:05:26;;;;;;;26.20;16.92;;;;;;;-3.53;100.00;99217.19;5076160;28;20103;-83
2022/12/13 08:07:51;;;;;;;23.20;16.30;;;;;;;-3.49;100.00;99218.06;5075851;28;20115;-83
2022/12/13 08:10:16;;;;;;;26.63;16.15;;;;;;;-3.49;100.00;99220.59;5076222;28;20373;-83
2022/12/13 08:12:41;;;;;;;24.98;16.80;;;;;;;-3.49;100.00;99216.34;5094130;28;20095;-84
2022/12/13 08:15:07;;;;;;;23.73;16.70;;;;;;;-3.47;100.00;99224.84;5086090;28;20024;-83
2022/12/13 08:17:33;;;;;;;25.23;17.58;;;;;;;-3.49;100.00;99224.00;5089576;28;20027;-83
2022/12/13 08:19:58;;;;;;;23.38;16.70;;;;;;;-3.43;100.00;99220.59;5072080;28;20028;-83
2022/12/13 08:22:24;;;;;;;23.17;16.17;;;;;;;-3.41;100.00;99208.72;5087747;28;20111;-83
2022/12/13 08:24:49;;;;;;;22.50;15.82;;;;;;;-3.30;100.00;99230.81;5075813;28;20023;-83
2022/12/13 08:27:14;;;;;;;21.35;14.80;;;;;;;-3.27;100.00;99217.25;5094014;28;20349;-83
2022/12/13 08:29:39;;;;;;;26.27;17.08;;;;;;;-3.21;100.00;99219.81;5075825;28;20032;-83
2022/12/13 08:32:08;;;;;;;25.30;16.77;;;;;;;-3.19;100.00;99217.28;5075507;28;20032;-83
2022/12/13 08:34:34;;;;;;;58.95;33.05;;;;;;;-3.27;100.00;99209.63;5093763;28;20026;-83
2022/12/13 08:36:59;;;;;;;32.45;22.52;;;;;;;-3.22;100.00;99223.19;5093402;28;20463;-83
2022/12/13 08:39:25;;;;;;;31.17;20.50;;;;;;;-3.24;100.00;99229.13;5050633;28;20032;-83
2022/12/13 08:41:50;;;;;;;41.00;25.23;;;;;;;-3.26;100.00;99221.50;5050722;28;20118;-83
2022/12/13 08:44:15;;;;;;;30.17;19.58;;;;;;;-3.29;100.00;99218.94;5048748;28;20076;-84
2022/12/13 08:46:41;;;;;;;38.50;29.00;;;;;;;-3.26;100.00;99219.78;5039690;28;20376;-83
2022/12/13 08:49:06;;;;;;;35.65;26.15;;;;;;;-3.16;100.00;99230.88;5038284;28;20113;-84
2022/12/13 08:51:31;;;;;;;36.10;27.75;;;;;;;-3.15;100.00;99232.56;5040721;28;20389;-83
2022/12/13 08:53:57;;;;;;;156.00;85.60;;;;;;;-3.23;100.00;99221.50;5038758;28;20079;-84
2022/12/13 08:56:22;;;;;;;89.72;52.83;;;;;;;-3.21;100.00;99229.13;5024530;28;20037;-84
2022/12/13 08:58:48;;;;;;;82.72;53.90;;;;;;;-3.08;100.00;99218.13;5050375;28;20028;-84
2022/12/13 09:01:14;;;;;;;94.43;54.50;;;;;;;-2.88;100.00;99238.53;5016326;28;20466;-84
2022/12/13 09:03:39;;;;;;;68.57;43.03;;;;;;;-2.72;100.00;99234.31;5048462;28;20216;-84
2022/12/13 09:06:07;;;;;;;53.05;36.58;;;;;;;-2.60;100.00;99234.31;5050082;28;20036;-84
2022/12/13 09:08:32;;;;;;;40.53;27.52;;;;;;;-2.45;100.00;99234.28;5050438;28;20036;-84
2022/12/13 09:10:59;;;;;;;29.80;19.40;;;;;;;-2.47;100.00;99224.94;5033315;28;20029;-84
2022/12/13 09:13:24;;;;;;;31.13;21.45;;;;;;;-2.52;100.00;99232.59;5050368;28;20060;-84
2022/12/13 09:15:50;;;;;;;38.10;23.25;;;;;;;-2.48;100.00;99233.44;5053478;28;20053;-84
2022/12/13 09:18:15;;;;;;;83.03;44.38;;;;;;;-2.44;100.00;99235.13;5074496;28;20363;-84
2022/12/13 09:20:41;;;;;;;68.68;37.25;;;;;;;-2.35;100.00;99230.88;5074348;28;20048;-83
2022/12/13 09:23:07;;;;;;;88.78;48.45;;;;;;;-2.29;100.00;99235.97;5092635;28;20024;-84
2022/12/13 09:25:32;;;;;;;48.55;29.00;;;;;;;-2.29;100.00;99245.31;5092900;28;20020;-84
2022/12/13 09:28:00;;;;;;;30.17;20.00;;;;;;;-2.38;100.00;99246.19;5092521;28;20459;-84
2022/12/13 09:30:26;;;;;;;27.67;18.70;;;;;;;-2.43;100.00;99245.34;5092655;28;20363;-83
2022/12/13 09:32:52;;;;;;;24.48;18.17;;;;;;;-2.42;100.00;99253.84;5092409;28;20103;-84
2022/12/13 09:35:17;;;;;;;47.45;27.20;;;;;;;-2.39;100.00;99241.09;5093005;28;20104;-83
2022/12/13 09:37:42;;;;;;;84.68;44.13;;;;;;;-2.34;100.00;99240.22;5074567;28;20020;-83
2022/12/13 09:40:17;;;;;;;46.65;25.58;;;;;;;-2.36;100.00;99239.38;5074149;28;20420;-83
2022/12/13 09:42:47;;;;;;;29.40;18.35;;;;;;;-2.37;100.00;99232.56;5092940;28;20086;-84
2022/12/13 09:45:13;;;;;;;29.60;19.95;;;;;;;-2.45;100.00;99231.72;5092497;28;20031;-83
2022/12/13 09:47:44;;;;;;;36.03;23.42;;;;;;;-2.36;100.00;99247.03;5092663;28;20020;-83
2022/12/13 09:50:33;;;;;;;49.65;27.30;;;;;;;-2.24;100.00;99243.59;5092271;28;20047;-84
2022/12/13 09:53:01;;;;;;;64.28;35.90;;;;;;;-2.11;100.00;99239.31;5092080;28;20024;-83
2022/12/13 09:55:31;;;;;;;48.08;27.17;;;;;;;-2.13;100.00;99247.00;5092278;28;20016;-84
2022/12/13 09:57:59;;;;;;;40.13;23.30;;;;;;;-2.23;100.00;99234.25;5092436;28;20020;-84
2022/12/13 10:00:32;;;;;;;27.13;17.10;;;;;;;-2.35;100.00;99230.03;5092684;28;20032;-84
2022/12/13 10:02:59;;;;;;;44.45;24.45;;;;;;;-2.34;100.00;99241.94;5092022;28;20367;-84
2022/12/13 10:05:37;;;;;;;27.25;18.42;;;;;;;-2.32;100.00;99240.22;5074167;28;20016;-84
2022/12/13 10:08:14;;;;;;;22.63;15.13;;;;;;;-2.36;100.00;99239.38;5073679;28;20143;-84
2022/12/13 10:10:40;;;;;;;25.80;16.83;;;;;;;-2.44;100.00;99225.78;5073786;28;20044;-84
2022/12/13 10:13:14;;;;;;;27.58;18.15;;;;;;;-2.33;100.00;99243.63;5091951;28;20043;-84
2022/12/13 10:15:45;;;;;;;30.73;20.40;;;;;;;-2.41;100.00;99230.03;5073848;28;20012;-84
2022/12/13 10:18:18;;;;;;;28.15;18.85;;;;;;;-2.33;100.00;99244.47;5073579;28;20089;-83
2022/12/13 10:20:44;;;;;;;26.20;16.83;;;;;;;-2.35;100.00;99233.44;5091961;28;20016;-84
2022/12/13 10:23:10;;;;;;;20.95;14.85;;;;;;;-2.27;100.00;99243.63;5073829;28;20035;-84
2022/12/13 10:25:49;;;;;;;24.33;16.05;;;;;;;-2.28;100.00;99245.31;5074265;28;20016;-84
2022/12/13 10:28:23;;;;;;;19.92;13.88;;;;;;;-2.32;100.00;99235.97;5074069;28;20024;-84
2022/12/13 10:30:49;;;;;;;22.08;15.65;;;;;;;-2.34;100.00;99236.81;5073868;28;20099;-84
2022/12/13 10:33:29;;;;;;;34.15;21.05;;;;;;;-2.33;100.00;99241.06;5092092;28;20127;-83
2022/12/13 10:36:34;;;;;;;22.25;15.60;;;;;;;-2.32;100.00;99243.63;5091869;28;20024;-83
2022/12/13 10:39:01;;;;;;;20.25;14.98;;;;;;;-2.26;100.00;99233.41;4973247;28;20419;-84
2022/12/13 10:41:35;;;;;;;19.77;13.32;;;;;;;-2.19;100.00;99235.94;4989759;28;20069;-83
2022/12/13 10:44:13;;;;;;;24.98;16.80;;;;;;;-2.16;100.00;99234.22;4989668;28;20038;-83
2022/12/13 10:46:41;;;;;;;24.70;17.08;;;;;;;-2.21;99.83;99230.00;4990169;28;20030;-84
2022/12/13 10:49:19;;;;;;;34.65;22.40;;;;;;;-2.21;100.00;99223.19;4989695;28;20137;-84
2022/12/13 10:51:45;;;;;;;119.55;55.08;;;;;;;-2.27;100.00;99210.47;4989937;28;20038;-84
2022/12/13 10:54:22;;;;;;;46.20;27.65;;;;;;;-2.31;99.78;99216.44;4989832;28;20065;-84
2022/12/13 10:56:50;;;;;;;46.05;26.80;;;;;;;-2.34;99.78;99221.53;4973384;28;20039;-83
2022/12/13 10:59:33;;;;;;;28.60;18.98;;;;;;;-2.30;100.00;99218.97;4989527;28;20034;-84
2022/12/13 11:02:00;;;;;;;26.70;18.48;;;;;;;-2.28;100.00;99221.50;4973135;28;20496;-83
2022/12/13 11:04:31;;;;;;;26.23;18.00;;;;;;;-2.25;100.00;99216.41;4975216;28;20089;-84
2022/12/13 11:07:21;;;;;;;27.25;16.63;;;;;;;-2.16;100.00;99224.03;4953938;28;20081;-83
2022/12/13 11:09:46;;;;;;;28.30;18.60;;;;;;;-2.18;100.00;99219.81;4913101;29;20047;-84
2022/12/13 11:12:19;;;;;;;26.05;18.38;;;;;;;-2.21;100.00;99222.34;4896898;29;20060;-83
2022/12/13 11:15:05;;;;;;;27.65;20.90;;;;;;;-2.28;100.00;99222.34;4925058;28;20042;-84
2022/12/13 11:17:35;;;;;;;34.55;24.10;;;;;;;-2.32;100.00;99228.34;4973267;28;20105;-84
2022/12/13 11:20:06;;;;;;;23.58;16.67;;;;;;;-2.33;100.00;99201.09;4973133;28;20528;-84
2022/12/13 11:22:37;;;;;;;37.47;26.85;;;;;;;-2.18;100.00;99209.59;4989609;28;20438;-84